Amagon, AR

5:38 AM CST on February 27, 2015 (GMT -0600)
Newport | Change Station
CLOSE
Current Station
Airport
Location: Newport,
Elevation: 240 ft
Nearby Weather Stations
Active Advisory: Flood Warning

Elev 240 ft 35.64 °N, 91.17 °W | Updated 42 minutes ago

Clear
Clear
20 °F
Feels Like 5 °F
N
18
Wind Variable Wind from NNE

Today
High -- | Low -- °F
--% Chance of Precip.
Yesterday
High -- | Low -- °F
Precip. -- in
6:37 AM 5:57 PM
Waxing Gibbous, 68% visible
Pressure 30.58 in
Visibility 10.0 miles
Clouds Clear
Windchill 5 °F
Dew Point 11 °F
Humidity 68%
Rainfall 0.00 in
Snow Depth Not available.
UV 0 out of 12
Pollen 5.30 out of 12
Air Quality Not available.
Flu Activity Not available.
METAR KM19 271056Z AUTO 02016KT 10SM CLR M07/M12 A3057 RMK AO2 T10661116 SLP354

More Conditions Fewer Conditions

Pressure 30.58 in
Visibility 10.0 miles
Clouds Clear
Windchill 5 °F
Dew Point 11 °F
Humidity 68%
Rainfall 0.00 in
Snow Depth Not available.
UV 0 out of 12
Pollen 5.30 out of 12
Air Quality Not available.
Flu Activity Not available.
METAR KM19 271056Z AUTO 02016KT 10SM CLR M07/M12 A3057 RMK AO2 T10661116 SLP354

More Conditions Fewer Conditions

10-Day Weather Forecast

Almanac

Astronomy

Feb. 27, 2015 Rise Set
Actual Time
Civil Twilight
Nautical Twilight
Astronomical Twilight
Moon
Length of Visible Light
Length of Day
Tomorrow will be .
, % of the Moon is Illuminated

Today's Extremes

State Highs State Lows

Community

WunderPhotos

Upload Photos

1,800,656 photos uploaded!

WunderBlogs® & News

Nearby

Air Quality

  Air Quality AQ Index Pollutant
Not available.

Snow Depth

Station Depth Elevation

Earthquake Activity

City Distance Mag. Time & Date
Minimum magnitude displayed is 2.5.

Coastal Water Temperatures

Place Temperature

Nearby Weather Stations

Flood Warning
Statement as of 8:55 PM CST on February 26, 2015

The Flood Warning continues for
the Cache River near Patterson.
* Until further notice... or until the warning is cancelled.
* At 8:00 PM Thursday the stage was 10.2 feet.
* Minor flooding is occurring and minor flooding is forecast.
* Flood stage is 8.0 feet.
* Forecast... the river will continue rising to near 10.3 feet by
early Saturday morning.
* Impacts at 10.0 feet... pastureland and cropland not protected by
levees in Jackson and Woodruff counties affected. Water is deep along
the shoulders of State Highway 18 near Grubbs. Water over portions of
Woodruff County Road 775 north of State Highway 260.




             Fld observed forecast 7 am
location stg stg day time Fri Sat sun Mon Tue

Cache River
Patterson 8 10.2 Thu 08 PM 10.2 10.3 10.2 10.1 10.0




Lat... Lon 3510 9133 3522 9128 3539 9123 3538 9113
3521 9117 3508 9122